Terminal Aerodrome Forecast
Issued by NWS Birmingham, AL

Home | Current Version | Previous Version | Text Only | Print | Product List | Glossary On
Versions: 1 2 3 4 5 6 7 8 9 10 11 12 13 14 15
210
FTUS44 KBMX 181134
TAFBHM
TAF
KBHM 181134Z 1812/1912 00000KT 3SM BR SCT006 OVC015
      TEMPO 1812/1815 1SM BR OVC005
     FM181500 27002KT 6SM BR OVC008
     FM181800 28003KT P6SM SCT006 OVC011
     FM182100 00000KT P6SM SCT010 SCT050
     FM190600 20001KT 4SM BR SCT007 BKN015=

USA.gov is the U.S. government's official web portal to all federal, state and local government web resources and services.